• Join FlightAware (Why Join?)
  • Login
  • US Flag 
06:36AM EDT


 

Airport Tracker/Info


-or-


 

Live Flight TrackerFlight Track Log ✈ FAO828 ✈ 28-Feb-2014 ✈ KPIE - KGSP

Flight Track Log - Related Links

Times and Time Zones

All times are in EST time to prevent confusion due to time zone crossing. See the FAO828 flight status page for this flight to view local times or setup timezone preferences in your user account.

Time Position Orientation Groundspeed Altitude Reporting Facility
EST Latitude Longitude Course Direction KTS MPH feet Rate Location/Type
09:05AM 27.9333 -82.7000 16° North 162 186 1,000  Level Tampa TRACON
09:06AM 27.9833 -82.6833 16° North 203 234 2,400 1,980 Climbing Tampa TRACON
09:07AM 28.0706 -82.6667 10° North 227 261 6,100 2,520 Climbing Jacksonville Center
09:08AM 28.1478 -82.6667 360° North 253 291 8,900 2,460 Climbing Jacksonville Center
09:09AM 28.2311 -82.6642 North 273 314 11,100 2,100 Climbing Jacksonville Center
09:10AM 28.3292 -82.6614 North 311 358 13,100 2,220 Climbing Jacksonville Center
09:11AM 28.4336 -82.6589 North 349 402 15,600 2,400 Climbing Jacksonville Center
09:12AM 28.5419 -82.6539 North 373 429 17,900 2,100 Climbing Jacksonville Center
09:13AM 28.6547 -82.6489 North 389 448 19,800 1,800 Climbing Jacksonville Center
09:14AM 28.7800 -82.6414 North 396 456 21,600 1,800 Climbing Jacksonville Center
09:15AM 28.9008 -82.6342 North 416 479 23,400 1,740 Climbing Jacksonville Center
09:16AM 29.0242 -82.6267 North 428 493 25,100 1,440 Climbing Jacksonville Center
09:17AM 29.1556 -82.6167 North 444 511 26,300 1,500 Climbing Jacksonville Center
09:18AM 29.2850 -82.6044 North 462 532 28,100 1,380 Climbing Jacksonville Center
09:19AM 29.4144 -82.5969 North 462 532 29,100 1,140 Climbing Jacksonville Center
09:20AM 29.5500 -82.5894 North 468 539 30,400 1,500 Climbing Jacksonville Center
09:21AM 29.6817 -82.5842 North 468 539 32,100 1,260 Climbing Jacksonville Center
09:22AM 29.7964 -82.5814 North 468 539 33,000 360 Climbing Jacksonville Center
09:23AM 29.9278 -82.5739 North 463 533 32,900  Descending Jacksonville Center
09:24AM 30.0678 -82.5733 360° North 463 533 33,000  Climbing Jacksonville Center
09:25AM 30.1992 -82.5658 North 460 529 32,900 -60 Descending Jacksonville Center
09:26AM 30.3036 -82.5631 North 460 529 32,900  Level Jacksonville Center
09:27AM 30.4478 -82.5578 North 460 529 32,900  Level Jacksonville Center
09:28AM 30.5792 -82.5522 North 460 529 32,900  Level Jacksonville Center
09:29AM 30.7086 -82.5447 North 460 529 33,000  Climbing Jacksonville Center
09:30AM 30.8422 -82.5392 North 460 529 32,900  Descending Jacksonville Center
09:31AM 30.9717 -82.5364 North 460 529 33,000  Climbing Jacksonville Center
09:32AM 31.1053 -82.5286 North 460 529 32,900 -60 Descending Jacksonville Center
09:33AM 31.2328 -82.5233 North 460 529 32,900  Level Jacksonville Center
09:34AM 31.3789 -82.5178 North 460 529 33,000  Climbing Jacksonville Center
09:35AM 31.5103 -82.5100 North 465 535 33,000  Level Jacksonville Center
09:38AM 31.8033 -82.4700 North 480 552 33,000  Level Atlanta Center
09:39AM 31.9367 -82.4481 North 480 552 33,000  Level Atlanta Center
09:40AM 32.0700 -82.4261 North 480 552 33,000  Level Atlanta Center
09:41AM 32.2011 -82.4067 North 480 552 33,000  Level Atlanta Center
09:42AM 32.3428 -82.3819 North 472 543 33,000  Level Atlanta Center
09:43AM 32.4700 -82.3622 North 467 537 33,000  Level Atlanta Center
09:44AM 32.5969 -82.3425 North 462 532 33,000  Level Atlanta Center
09:45AM 32.7281 -82.3178 North 467 537 33,000  Level Atlanta Center
09:46AM 32.8553 -82.3006 North 462 532 33,000 -360 Level Atlanta Center
09:47AM 32.9822 -82.2806 North 462 532 32,300 -900 Descending Atlanta Center
09:48AM 33.1072 -82.2608 North 462 532 31,300 -1,320 Descending Atlanta Center
09:49AM 33.2383 -82.2381 North 462 532 29,700 -1,680 Descending Atlanta Center
09:50AM 33.3694 -82.2181 North 462 532 28,000 -1,800 Descending Atlanta Center
09:51AM 33.4986 -82.1978 North 462 532 26,100 -1,980 Descending Atlanta Center
09:52AM 33.6111 -82.1756 North 462 532 24,100 -2,160 Descending Atlanta Center
09:53AM 33.7361 -82.1628 North 462 532 21,800 -2,280 Descending Atlanta Center
09:54AM 33.8531 -82.1603 North 438 504 19,600 -2,160 Descending Atlanta Center
09:55AM 33.9678 -82.1603 360° North 415 478 17,500 -2,160 Descending Atlanta Center
09:56AM 34.0761 -82.1578 North 402 463 15,300 -2,280 Descending Atlanta Center
09:57AM 34.1806 -82.1581 360° North 381 438 13,000 -2,160 Descending Atlanta Center
09:58AM 34.2808 -82.1558 North 368 423 11,000 -1,560 Descending Atlanta Center
09:59AM 34.3725 -82.1539 North 347 399 9,900 -900 Descending Atlanta Center
10:00AM 34.4519 -82.1569 358° North 311 358 9,300 -1,440 Descending Atlanta Center
10:01AM 34.5275 -82.1931 339° North 271 312 7,100 -1,920 Descending Atlanta Center
10:02AM 34.5928 -82.2269 337° Northwest 257 296 5,500 -1,500 Descending Atlanta Center
10:03AM 34.6494 -82.2536 339° North 237 273 4,100 -1,260 Descending Atlanta Center
10:04AM 34.7061 -82.2753 343° North 221 254 3,000 -600 Descending Atlanta Center
10:05AM 34.7586 -82.2942 344° North 207 238 3,000  Level Atlanta Center
10:07AM 34.8833 -82.2167 338° Northwest  Level FlightAware Approximate
10:14AM 34.8957 -82.2189 338° Northwest  Level Estimated
10:15AM 34.8957 -82.2189 338° Northwest  Level Estimated
10:16AM 34.8957 -82.2189 338° Northwest  Level Estimated